createdAt,value
2018-02-09T04:00:41.410Z,74.03
2018-02-09T04:01:41.356Z,73.45
2018-02-09T04:04:24.807Z,73.47
2018-02-09T04:05:24.716Z,71.99
2018-02-09T04:08:09.145Z,69.28
2018-02-09T04:09:09.565Z,70.15
2018-02-09T04:11:52.484Z,70.19
2018-02-09T04:12:53.328Z,74.16
2018-02-09T04:15:35.792Z,72.83
2018-02-09T04:16:35.755Z,72.48
2018-02-09T04:19:19.795Z,70.94
2018-02-09T04:20:19.611Z,72.45
2018-02-09T04:23:03.506Z,70.18
2018-02-09T04:24:03.404Z,67.32
2018-02-09T04:26:47.750Z,67.50
2018-02-09T04:27:47.728Z,67.76
2018-02-09T04:30:31.675Z,69.92
2018-02-09T04:31:31.566Z,71.43
2018-02-09T04:34:14.422Z,71.13
2018-02-09T04:35:14.866Z,69.53
2018-02-09T04:37:59.209Z,66.91
2018-02-09T04:38:58.751Z,67.64
2018-02-09T04:41:43.139Z,66.90
2018-02-09T04:42:43.062Z,64.24
2018-02-09T04:45:26.902Z,65.13
2018-02-09T04:46:26.475Z,64.47
2018-02-09T04:49:10.360Z,66.27
2018-02-09T04:50:10.246Z,63.46
2018-02-09T04:52:53.146Z,65.45
2018-02-09T04:53:53.134Z,63.76
2018-02-09T04:56:37.434Z,62.62
2018-02-09T04:57:36.479Z,63.62
2018-02-09T05:00:20.290Z,60.98
2018-02-09T05:01:20.348Z,61.94
2018-02-09T05:04:03.682Z,61.88
2018-02-09T05:05:02.719Z,60.75
2018-02-09T05:07:47.068Z,64.94
2018-02-09T05:08:47.016Z,65.96
2018-02-09T05:11:32.296Z,64.05
2018-02-09T05:12:31.834Z,63.79
2018-02-09T05:15:15.176Z,66.90
2018-02-09T05:16:14.738Z,65.30
2018-02-09T05:18:59.401Z,65.47
2018-02-09T05:19:59.323Z,65.45
2018-02-09T05:22:43.661Z,66.18
2018-02-09T05:23:43.538Z,65.47
2018-02-09T05:26:27.940Z,67.56
2018-02-09T05:27:28.877Z,64.50
2018-02-09T05:30:12.687Z,65.86
2018-02-09T05:31:12.644Z,64.28
2018-02-09T05:32:13.213Z,65.93
2018-02-09T05:33:12.568Z,63.38
2018-02-09T05:34:12.172Z,66.21
2018-02-09T05:35:12.149Z,66.59
2018-02-09T05:36:12.151Z,66.38
2018-02-09T05:37:12.622Z,64.74
2018-02-09T05:38:12.490Z,64.98
2018-02-09T05:39:12.520Z,65.11
2018-02-09T05:40:13.517Z,64.25
2018-02-09T05:41:12.495Z,65.25
2018-02-09T05:42:12.573Z,63.06
2018-02-09T05:43:12.389Z,64.74
2018-02-09T05:44:12.134Z,65.67
2018-02-09T05:45:12.384Z,64.10
2018-02-09T05:46:12.452Z,63.27
2018-02-09T05:47:13.167Z,64.00
2018-02-09T05:48:12.930Z,65.07
2018-02-09T05:49:12.394Z,64.90
2018-02-09T05:50:12.421Z,64.43
2018-02-09T05:51:12.921Z,63.23
2018-02-09T05:52:11.928Z,63.04
2018-02-09T05:53:11.917Z,65.39
2018-02-09T05:54:11.888Z,66.63
2018-02-09T05:55:11.887Z,64.40
2018-02-09T05:56:11.864Z,65.40
2018-02-09T05:57:11.846Z,68.26
2018-02-09T05:58:11.848Z,66.37
2018-02-09T05:59:11.955Z,66.20
2018-02-09T06:00:11.821Z,64.73
2018-02-09T06:00:27.785Z,2.61
2018-02-09T06:02:11.793Z,66.05
2018-02-09T06:03:11.778Z,66.07
2018-02-09T06:04:11.757Z,65.39
2018-02-09T06:05:11.754Z,63.86
2018-02-09T06:06:11.746Z,65.68
2018-02-09T06:07:11.738Z,66.36
2018-02-09T06:08:11.725Z,65.15
2018-02-09T06:09:11.697Z,65.15
2018-02-09T06:10:11.686Z,66.46
2018-02-09T06:11:11.671Z,67.25
2018-02-09T06:12:11.659Z,66.70
2018-02-09T06:13:11.648Z,64.43
2018-02-09T06:14:11.634Z,65.14
2018-02-09T06:15:11.638Z,64.94
2018-02-09T06:16:11.617Z,67.60
2018-02-09T06:17:11.604Z,67.70
2018-02-09T06:18:11.585Z,65.59
2018-02-09T06:19:11.587Z,66.29
2018-02-09T06:20:11.556Z,68.12
2018-02-09T06:21:11.546Z,66.53
2018-02-09T06:22:11.535Z,69.07
2018-02-09T06:23:11.514Z,67.97
2018-02-09T06:24:11.522Z,66.90
2018-02-09T06:25:11.490Z,64.15
2018-02-09T06:26:11.481Z,64.70
2018-02-09T06:27:11.468Z,64.88
2018-02-09T06:28:11.454Z,66.98
2018-02-09T06:29:11.447Z,65.80
2018-02-09T06:30:11.434Z,65.56
2018-02-09T06:31:11.418Z,66.13
2018-02-09T06:32:11.403Z,64.56
2018-02-09T06:33:11.410Z,66.95
2018-02-09T06:34:11.379Z,65.54
2018-02-09T06:35:11.364Z,64.93
2018-02-09T06:36:11.343Z,66.24
2018-02-09T06:37:11.339Z,69.02
2018-02-09T06:38:11.345Z,66.63
2018-02-09T06:39:11.322Z,68.12
2018-02-09T06:40:11.298Z,69.49
2018-02-09T06:41:11.291Z,65.51
2018-02-09T06:42:11.292Z,65.81
2018-02-09T06:43:11.262Z,68.33
2018-02-09T06:44:11.243Z,66.90
2018-02-09T06:45:11.241Z,67.59
2018-02-09T06:46:11.387Z,67.84
2018-02-09T06:47:11.215Z,66.20
2018-02-09T06:48:11.214Z,65.96
2018-02-09T06:49:11.250Z,65.56
2018-02-09T06:50:11.166Z,67.62
2018-02-09T06:51:11.307Z,68.55
2018-02-09T06:52:11.205Z,67.03
2018-02-09T06:53:11.168Z,65.54
2018-02-09T06:54:11.136Z,65.71
2018-02-09T06:55:11.229Z,65.88
2018-02-09T06:56:11.082Z,67.14
2018-02-09T06:57:11.112Z,65.06
2018-02-09T06:58:11.081Z,66.16
2018-02-09T06:59:12.795Z,65.12
2018-02-09T07:00:11.104Z,65.21
2018-02-09T07:01:11.050Z,64.87
2018-02-09T07:02:11.030Z,65.48
2018-02-09T07:03:10.994Z,65.62
2018-02-09T07:04:10.992Z,66.48
2018-02-09T07:05:10.976Z,64.97
2018-02-09T07:06:10.978Z,64.54
2018-02-09T07:07:10.940Z,62.67
2018-02-09T07:08:10.933Z,62.94
2018-02-09T07:09:10.935Z,63.41
2018-02-09T07:10:10.924Z,61.86
2018-02-09T07:11:11.085Z,63.04
2018-02-09T07:12:10.882Z,60.78
2018-02-09T07:13:10.875Z,60.92
2018-02-09T07:14:10.864Z,62.26
2018-02-09T07:15:10.850Z,61.26
2018-02-09T07:16:10.831Z,59.08
2018-02-09T07:17:10.821Z,61.68
2018-02-09T07:18:10.812Z,57.62
2018-02-09T07:19:10.816Z,54.40
2018-02-09T07:20:10.791Z,55.41
2018-02-09T07:21:10.769Z,55.64
2018-02-09T07:22:10.753Z,52.04
2018-02-09T07:23:10.761Z,54.04
2018-02-09T07:24:10.744Z,51.89
2018-02-09T07:25:10.716Z,50.81
2018-02-09T07:26:10.711Z,53.29
2018-02-09T07:27:10.702Z,52.01
2018-02-09T07:28:10.683Z,50.35
2018-02-09T07:29:10.673Z,51.15
2018-02-09T07:30:10.666Z,50.36
2018-02-09T07:31:10.645Z,51.31
2018-02-09T07:32:10.632Z,51.94
2018-02-09T07:33:10.623Z,52.64
2018-02-09T07:34:10.602Z,52.49
2018-02-09T07:35:10.593Z,51.41
2018-02-09T07:36:10.584Z,51.75
2018-02-09T07:37:10.566Z,51.48
2018-02-09T07:38:10.574Z,51.60
2018-02-09T07:39:10.559Z,50.72
2018-02-09T07:40:10.538Z,50.33
2018-02-09T07:41:10.524Z,51.06
2018-02-09T07:42:10.506Z,51.40
2018-02-09T07:43:10.525Z,52.33
2018-02-09T07:44:10.490Z,50.90
2018-02-09T07:45:10.475Z,50.36
2018-02-09T07:46:10.456Z,51.05
2018-02-09T07:47:10.444Z,51.06
2018-02-09T07:48:10.438Z,49.56
2018-02-09T07:49:10.424Z,50.67
2018-02-09T07:50:10.403Z,50.83
2018-02-09T07:51:10.385Z,52.51
2018-02-09T07:52:10.413Z,51.68
2018-02-09T07:53:10.355Z,53.56
2018-02-09T07:54:10.351Z,51.45
2018-02-09T07:55:10.339Z,51.73
2018-02-09T07:56:10.346Z,52.79
2018-02-09T07:57:10.309Z,50.72
2018-02-09T07:58:10.297Z,51.22
2018-02-09T07:59:10.296Z,50.82
2018-02-09T08:00:10.279Z,51.80
2018-02-09T08:01:10.265Z,53.62
2018-02-09T08:02:10.251Z,52.14
2018-02-09T08:03:10.236Z,52.51
2018-02-09T08:04:10.238Z,51.11
2018-02-09T08:05:10.210Z,50.13
2018-02-09T08:06:10.203Z,51.56
2018-02-09T08:07:10.192Z,52.42
2018-02-09T08:08:10.173Z,52.38
2018-02-09T08:09:10.154Z,51.28
2018-02-09T08:10:10.152Z,52.75
2018-02-09T08:11:10.136Z,54.22
2018-02-09T08:12:10.129Z,52.62
2018-02-09T08:13:10.107Z,53.21
2018-02-09T08:14:10.097Z,52.94
2018-02-09T08:15:10.082Z,52.54
2018-02-09T08:16:10.064Z,53.97
2018-02-09T08:17:10.066Z,53.22
2018-02-09T08:18:10.050Z,56.73
2018-02-09T08:19:10.038Z,58.71
2018-02-09T08:20:10.034Z,54.06
2018-02-09T08:21:10.008Z,53.10
2018-02-09T08:22:09.994Z,53.68
2018-02-09T08:23:09.986Z,53.50
2018-02-09T08:24:09.987Z,51.08
2018-02-09T08:25:09.956Z,52.15
2018-02-09T08:26:09.952Z,51.92
2018-02-09T08:27:09.938Z,50.92
2018-02-09T08:28:09.925Z,51.60
2018-02-09T08:29:09.905Z,52.19
2018-02-09T08:30:09.907Z,52.38
2018-02-09T08:31:09.884Z,52.18
2018-02-09T08:32:09.872Z,55.45
2018-02-09T08:33:09.860Z,53.18
2018-02-09T08:34:09.843Z,51.67
2018-02-09T08:35:09.835Z,51.24
2018-02-09T08:36:09.816Z,52.29
2018-02-09T08:37:09.807Z,52.34
2018-02-09T08:38:09.812Z,51.03
2018-02-09T08:39:09.784Z,51.56
2018-02-09T08:40:09.774Z,52.67
2018-02-09T08:41:09.759Z,52.25
2018-02-09T08:42:09.740Z,52.02
2018-02-09T08:43:09.735Z,52.18
2018-02-09T08:44:09.737Z,51.56
2018-02-09T08:45:09.705Z,51.14
2018-02-09T08:46:09.695Z,51.75
2018-02-09T08:47:09.678Z,53.28
2018-02-09T08:48:09.676Z,52.04
2018-02-09T08:49:09.657Z,49.89
2018-02-09T08:50:09.652Z,52.04
2018-02-09T08:51:09.638Z,52.46
2018-02-09T08:52:09.638Z,53.17
2018-02-09T08:53:09.604Z,52.61
2018-02-09T08:54:09.618Z,52.09
2018-02-09T08:55:09.596Z,53.04
2018-02-09T08:56:09.574Z,51.57
2018-02-09T08:57:09.562Z,50.95
2018-02-09T08:58:09.571Z,52.18
2018-02-09T08:59:09.545Z,52.11
2018-02-09T09:00:09.520Z,50.52
2018-02-09T09:01:09.510Z,50.70
2018-02-09T09:02:09.525Z,51.57
2018-02-09T09:03:09.496Z,52.86
2018-02-09T09:04:09.482Z,51.23
2018-02-09T09:05:09.523Z,50.82
2018-02-09T09:06:09.511Z,52.29
2018-02-09T09:07:09.435Z,54.08
2018-02-09T09:08:09.420Z,51.04
2018-02-09T09:09:09.426Z,50.89
2018-02-09T09:10:09.438Z,50.64
2018-02-09T09:11:09.395Z,52.01
2018-02-09T09:12:09.371Z,52.82
2018-02-09T09:13:09.370Z,53.12
2018-02-09T09:14:09.366Z,51.44
2018-02-09T09:15:09.368Z,51.68
2018-02-09T09:16:09.333Z,52.22
2018-02-09T09:17:09.322Z,51.70
2018-02-09T09:18:09.307Z,52.63
2018-02-09T09:19:09.304Z,50.90
2018-02-09T09:20:09.277Z,52.00
2018-02-09T09:21:09.271Z,52.47
2018-02-09T09:22:09.260Z,54.25
2018-02-09T09:23:09.246Z,54.48
2018-02-09T09:24:09.228Z,53.04
2018-02-09T09:25:09.232Z,51.46
2018-02-09T09:26:09.212Z,52.61
2018-02-09T09:27:09.200Z,52.95
2018-02-09T09:28:09.238Z,52.78
2018-02-09T09:29:09.172Z,51.66
2018-02-09T09:30:09.197Z,53.18
2018-02-09T09:31:09.169Z,53.50
2018-02-09T09:32:09.153Z,55.18
2018-02-09T09:33:09.138Z,53.44
2018-02-09T09:34:09.118Z,54.39
2018-02-09T09:35:09.147Z,56.50
2018-02-09T09:36:09.113Z,55.85
2018-02-09T09:37:09.102Z,54.31
2018-02-09T09:38:09.074Z,53.77
2018-02-09T09:39:09.060Z,54.29
2018-02-09T09:40:09.062Z,53.12
2018-02-09T09:41:09.040Z,53.96
2018-02-09T09:42:09.030Z,54.09
2018-02-09T09:43:09.009Z,53.78
2018-02-09T09:44:08.993Z,54.46
2018-02-09T09:45:08.993Z,53.68
2018-02-09T09:46:08.994Z,54.07
2018-02-09T09:47:08.961Z,54.52
2018-02-09T09:48:08.949Z,53.66
2018-02-09T09:49:08.965Z,55.95
2018-02-09T09:50:08.932Z,54.37
2018-02-09T09:51:08.922Z,56.38
2018-02-09T09:52:08.904Z,54.95
2018-02-09T09:53:08.902Z,54.08
2018-02-09T09:54:08.925Z,53.36
2018-02-09T09:55:08.877Z,54.42
2018-02-09T09:56:08.865Z,54.03
2018-02-09T09:57:08.849Z,54.88
2018-02-09T09:58:08.838Z,53.34
2018-02-09T09:59:08.833Z,52.65
2018-02-09T10:00:08.806Z,52.72
2018-02-09T10:01:08.810Z,52.06
2018-02-09T10:02:08.796Z,52.24
2018-02-09T10:03:08.787Z,54.03
2018-02-09T10:04:08.774Z,52.60
2018-02-09T10:05:08.773Z,52.56
2018-02-09T10:06:08.739Z,51.30
2018-02-09T10:07:08.738Z,52.76
2018-02-09T10:08:08.725Z,52.01
2018-02-09T10:09:08.711Z,52.20
2018-02-09T10:10:08.708Z,53.36
2018-02-09T10:11:08.690Z,52.42
2018-02-09T10:12:08.681Z,52.99
2018-02-09T10:13:08.669Z,53.76
2018-02-09T10:14:08.674Z,52.26
2018-02-09T10:15:08.645Z,53.18
2018-02-09T10:16:08.645Z,51.70
2018-02-09T10:17:08.624Z,53.03
2018-02-09T10:18:08.644Z,54.71
2018-02-09T10:19:08.602Z,54.37
2018-02-09T10:20:08.588Z,52.33
2018-02-09T10:21:08.588Z,50.72
2018-02-09T10:22:08.572Z,52.74
2018-02-09T10:23:08.552Z,51.42
2018-02-09T10:24:08.562Z,50.88
2018-02-09T10:25:08.529Z,54.54
2018-02-09T10:26:08.525Z,54.80
2018-02-09T10:27:08.517Z,52.48
2018-02-09T10:28:08.515Z,51.14
2018-02-09T10:29:08.500Z,51.47
2018-02-09T10:30:08.488Z,51.35
2018-02-09T10:31:08.503Z,51.01
2018-02-09T10:32:08.463Z,50.20
2018-02-09T10:33:08.448Z,51.28
2018-02-09T10:34:08.448Z,49.53
2018-02-09T10:35:08.458Z,49.27
2018-02-09T10:36:08.433Z,50.00
2018-02-09T10:37:08.425Z,48.04
2018-02-09T10:38:08.394Z,47.30
2018-02-09T10:39:08.386Z,49.83
2018-02-09T10:40:08.379Z,48.92
2018-02-09T10:41:08.381Z,48.85
2018-02-09T10:42:08.376Z,50.08
2018-02-09T10:43:08.345Z,49.27
2018-02-09T10:44:08.334Z,50.01
2018-02-09T10:45:08.322Z,51.01
2018-02-09T10:46:08.324Z,48.74
2018-02-09T10:47:08.307Z,47.59
2018-02-09T10:48:08.303Z,47.46
2018-02-09T10:49:08.287Z,49.26
2018-02-09T10:50:08.280Z,47.50
2018-02-09T10:51:08.291Z,47.64
2018-02-09T10:52:08.285Z,47.47
2018-02-09T10:53:08.247Z,47.14
2018-02-09T10:54:08.253Z,47.28
2018-02-09T10:55:08.256Z,48.08
2018-02-09T10:56:08.213Z,48.14
2018-02-09T10:57:08.209Z,48.82
2018-02-09T10:58:08.213Z,47.25
2018-02-09T10:59:08.196Z,48.24
2018-02-09T11:00:08.176Z,48.05
2018-02-09T11:01:08.173Z,46.30
2018-02-09T11:02:08.162Z,47.20
2018-02-09T11:03:08.147Z,44.06
2018-02-09T11:04:08.137Z,43.49
2018-02-09T11:05:08.146Z,44.11
2018-02-09T11:06:08.140Z,45.07
2018-02-09T11:07:08.117Z,44.71
2018-02-09T11:08:08.097Z,43.62
2018-02-09T11:09:08.101Z,44.15
2018-02-09T11:10:08.078Z,43.80
2018-02-09T11:11:08.072Z,44.82
2018-02-09T11:12:08.055Z,43.77
2018-02-09T11:13:08.068Z,43.61
2018-02-09T11:14:08.031Z,45.16
2018-02-09T11:15:08.070Z,44.50
2018-02-09T11:16:08.020Z,44.46
2018-02-09T11:17:08.021Z,43.51
2018-02-09T11:18:08.004Z,44.48
2018-02-09T11:19:07.988Z,44.72
2018-02-09T11:20:07.985Z,44.58
2018-02-09T11:21:07.983Z,44.54
2018-02-09T11:22:07.968Z,44.61
2018-02-09T11:23:07.958Z,43.37
2018-02-09T11:24:07.944Z,43.80
2018-02-09T11:25:07.955Z,44.19
2018-02-09T11:26:07.969Z,44.39
2018-02-09T11:27:07.959Z,45.17
2018-02-09T11:28:07.902Z,45.20
2018-02-09T11:29:07.889Z,43.71
2018-02-09T11:30:07.900Z,44.28
2018-02-09T11:31:09.840Z,44.23
2018-02-09T11:32:07.864Z,44.18
2018-02-09T11:33:07.848Z,44.57
2018-02-09T11:34:07.839Z,45.47
2018-02-09T11:35:07.845Z,45.02
2018-02-09T11:36:07.880Z,43.44
2018-02-09T11:37:07.814Z,40.29
2018-02-09T11:38:07.832Z,41.90
2018-02-09T11:39:07.816Z,42.72
2018-02-09T11:40:07.799Z,42.46
2018-02-09T11:41:07.785Z,40.81
2018-02-09T11:42:07.780Z,42.83
2018-02-09T11:43:07.762Z,40.14
2018-02-09T11:44:07.769Z,41.09
2018-02-09T11:45:07.744Z,41.72
2018-02-09T11:46:07.746Z,39.84
2018-02-09T11:47:07.728Z,41.16
2018-02-09T11:48:07.728Z,40.35
2018-02-09T11:49:07.709Z,41.36
2018-02-09T11:50:07.697Z,40.76
2018-02-09T11:51:07.681Z,38.88
2018-02-09T11:52:07.688Z,36.17
2018-02-09T11:53:07.680Z,38.14
2018-02-09T11:54:07.671Z,38.80
2018-02-09T11:55:07.671Z,37.15
2018-02-09T11:56:07.640Z,36.36
2018-02-09T11:57:07.635Z,37.09
2018-02-09T11:58:07.641Z,38.01
2018-02-09T11:59:07.620Z,37.44
2018-02-09T12:00:07.608Z,36.70
2018-02-09T12:01:07.606Z,35.94
2018-02-09T12:02:07.583Z,35.39
2018-02-09T12:03:07.579Z,34.32
2018-02-09T12:04:07.570Z,34.22
2018-02-09T12:05:07.557Z,32.96
2018-02-09T12:06:07.648Z,32.21
2018-02-09T12:07:07.551Z,32.08
2018-02-09T12:08:07.546Z,32.21
2018-02-09T12:09:09.386Z,32.50
2018-02-09T12:10:07.528Z,30.52
2018-02-09T12:11:07.515Z,32.02
2018-02-09T12:12:07.519Z,31.30
2018-02-09T12:13:07.499Z,31.08
2018-02-09T12:14:07.505Z,29.12
2018-02-09T12:15:07.489Z,28.71
2018-02-09T12:16:07.472Z,30.22
2018-02-09T12:17:07.471Z,28.32
2018-02-09T12:18:07.456Z,28.75
2018-02-09T12:19:07.441Z,28.74
2018-02-09T12:20:07.438Z,29.13
2018-02-09T12:21:07.433Z,28.18
2018-02-09T12:22:07.439Z,29.40
2018-02-09T12:23:07.405Z,30.17
2018-02-09T12:24:07.400Z,28.28
2018-02-09T12:25:07.385Z,29.22
2018-02-09T12:26:07.384Z,29.30
2018-02-09T12:27:07.400Z,28.97
2018-02-09T12:28:07.375Z,28.85
2018-02-09T12:29:07.356Z,29.06
2018-02-09T12:30:07.352Z,27.77
2018-02-09T12:31:07.340Z,27.72
2018-02-09T12:32:07.331Z,28.41
2018-02-09T12:33:07.324Z,27.97
2018-02-09T12:34:07.338Z,28.64
2018-02-09T12:35:07.308Z,27.96
2018-02-09T12:36:07.295Z,28.97
2018-02-09T12:37:07.304Z,28.13
2018-02-09T12:38:07.308Z,27.92
2018-02-09T12:39:07.262Z,28.38
2018-02-09T12:40:07.269Z,28.04
2018-02-09T12:41:07.298Z,29.05
2018-02-09T12:42:07.246Z,28.11
2018-02-09T12:43:07.243Z,27.62
2018-02-09T12:44:07.239Z,28.17
2018-02-09T12:45:07.219Z,28.55
2018-02-09T12:46:07.239Z,29.02
2018-02-09T12:47:07.240Z,29.06
2018-02-09T12:48:07.188Z,28.55
2018-02-09T12:49:07.195Z,28.48
2018-02-09T12:50:07.171Z,29.46
2018-02-09T12:51:07.170Z,29.99
2018-02-09T12:52:07.146Z,30.14
2018-02-09T12:53:07.154Z,29.40
2018-02-09T12:54:07.158Z,29.50
2018-02-09T12:55:07.144Z,29.29
2018-02-09T12:56:07.117Z,28.81
2018-02-09T12:57:07.107Z,28.59
2018-02-09T12:58:07.103Z,28.10
2018-02-09T12:59:07.115Z,28.23
2018-02-09T13:00:07.108Z,29.47
2018-02-09T13:01:07.068Z,29.24
2018-02-09T13:02:07.083Z,26.80
2018-02-09T13:03:07.074Z,27.17
2018-02-09T13:04:07.049Z,27.58
2018-02-09T13:05:07.036Z,27.05
2018-02-09T13:06:07.021Z,26.42
2018-02-09T13:07:07.033Z,25.75
2018-02-09T13:08:07.015Z,25.12
2018-02-09T13:09:07.006Z,25.17
2018-02-09T13:10:06.987Z,26.19
2018-02-09T13:11:06.992Z,25.79
2018-02-09T13:12:06.965Z,25.10
2018-02-09T13:13:06.956Z,24.22
2018-02-09T13:14:06.957Z,24.48
2018-02-09T13:15:06.968Z,24.94
2018-02-09T13:16:06.942Z,25.76
2018-02-09T13:17:06.924Z,25.68
2018-02-09T13:18:06.911Z,23.56
2018-02-09T13:19:06.907Z,23.04
2018-02-09T13:20:06.931Z,22.87
2018-02-09T13:21:06.897Z,23.44
2018-02-09T13:22:06.886Z,25.39
2018-02-09T13:23:06.876Z,23.85
2018-02-09T13:24:06.858Z,22.02
2018-02-09T13:25:06.861Z,21.12
2018-02-09T13:26:06.865Z,21.66
2018-02-09T13:27:06.833Z,21.95
2018-02-09T13:28:06.824Z,21.66
2018-02-09T13:29:06.821Z,23.84
2018-02-09T13:30:06.801Z,24.29
2018-02-09T13:31:06.798Z,24.35
2018-02-09T13:32:06.798Z,24.28
2018-02-09T13:33:06.774Z,24.86
2018-02-09T13:34:06.789Z,24.76
2018-02-09T13:35:06.753Z,23.87
2018-02-09T13:36:06.739Z,22.76
2018-02-09T13:37:06.750Z,23.06
2018-02-09T13:38:06.753Z,24.07
2018-02-09T13:39:06.737Z,24.45
2018-02-09T13:40:06.737Z,22.98
2018-02-09T13:41:06.716Z,23.94
2018-02-09T13:42:06.700Z,22.32
2018-02-09T13:43:06.684Z,21.75
2018-02-09T13:44:06.674Z,21.19
2018-02-09T13:45:06.677Z,21.42
2018-02-09T13:46:06.649Z,22.77
2018-02-09T13:47:06.647Z,23.17
2018-02-09T13:48:06.623Z,22.20
2018-02-09T13:49:06.647Z,21.84
2018-02-09T13:50:06.641Z,22.56
2018-02-09T13:51:06.620Z,21.96
2018-02-09T13:52:06.598Z,20.90
2018-02-09T13:53:06.611Z,21.18
2018-02-09T13:54:06.584Z,21.06
2018-02-09T13:55:06.570Z,21.76
2018-02-09T13:56:06.563Z,20.92
2018-02-09T13:57:06.548Z,22.01
2018-02-09T13:58:06.546Z,20.69
2018-02-09T13:59:06.534Z,23.35
2018-02-09T14:00:06.517Z,22.44
2018-02-09T14:01:06.520Z,20.77
2018-02-09T14:02:06.561Z,20.87
2018-02-09T14:03:06.488Z,21.28
2018-02-09T14:04:06.494Z,20.72
2018-02-09T14:05:06.481Z,19.85
2018-02-09T14:06:06.481Z,20.32
2018-02-09T14:07:06.445Z,18.98
2018-02-09T14:08:06.440Z,19.76
2018-02-09T14:09:06.434Z,19.69
2018-02-09T14:10:06.427Z,20.00
2018-02-09T14:11:06.424Z,20.33
2018-02-09T14:12:06.405Z,19.76
2018-02-09T14:13:06.405Z,19.97
2018-02-09T14:14:06.383Z,19.36
2018-02-09T14:15:06.377Z,20.00
2018-02-09T14:16:06.374Z,20.35
2018-02-09T14:17:06.364Z,19.75
2018-02-09T14:18:06.339Z,21.32
2018-02-09T14:19:06.330Z,21.61
2018-02-09T14:20:06.337Z,21.43
2018-02-09T14:21:06.321Z,21.03
2018-02-09T14:22:06.309Z,21.16
2018-02-09T14:23:06.316Z,20.56
2018-02-09T14:24:06.292Z,20.38
2018-02-09T14:25:06.282Z,19.76
2018-02-09T14:26:06.286Z,18.79
2018-02-09T14:27:06.252Z,19.35
2018-02-09T14:28:06.255Z,19.61
2018-02-09T14:29:06.244Z,19.45
2018-02-09T14:30:06.249Z,19.18
2018-02-09T14:31:06.218Z,20.48
2018-02-09T14:32:06.212Z,19.66
2018-02-09T14:33:06.216Z,18.59
2018-02-09T14:34:06.208Z,19.75
2018-02-09T14:35:06.210Z,20.20
2018-02-09T14:36:06.176Z,18.73
2018-02-09T14:37:06.185Z,18.61
2018-02-09T14:38:06.153Z,19.04
2018-02-09T14:39:06.163Z,19.19
2018-02-09T14:40:06.136Z,19.53
2018-02-09T14:41:06.140Z,19.08
2018-02-09T14:42:06.128Z,19.56
2018-02-09T14:43:06.109Z,19.74
2018-02-09T14:44:06.130Z,19.46
2018-02-09T14:45:06.084Z,20.58
2018-02-09T14:46:06.071Z,19.63
2018-02-09T14:47:06.081Z,19.52
2018-02-09T14:48:06.059Z,19.68
2018-02-09T14:49:06.062Z,19.45
2018-02-09T14:50:06.035Z,19.96
2018-02-09T14:51:06.028Z,19.60
2018-02-09T14:52:06.019Z,19.21
2018-02-09T14:53:06.011Z,19.14
2018-02-09T14:54:06.008Z,19.04
2018-02-09T14:55:05.982Z,18.40
2018-02-09T14:56:05.978Z,19.24
2018-02-09T14:57:05.980Z,18.79
2018-02-09T14:58:05.963Z,20.06
2018-02-09T14:59:05.943Z,19.51
2018-02-09T15:00:05.976Z,19.51
2018-02-09T15:01:05.919Z,19.78
2018-02-09T15:02:05.923Z,19.33
2018-02-09T15:03:05.898Z,19.11
2018-02-09T15:04:05.897Z,19.04
2018-02-09T15:05:05.899Z,19.26
2018-02-09T15:06:05.896Z,18.99
2018-02-09T15:07:05.876Z,19.26
2018-02-09T15:08:05.860Z,19.54
2018-02-09T15:09:05.844Z,19.03
2018-02-09T15:10:05.833Z,19.45
2018-02-09T15:11:05.832Z,18.84
2018-02-09T15:12:05.857Z,18.81
2018-02-09T15:13:05.812Z,18.42
2018-02-09T15:14:05.800Z,18.67
2018-02-09T15:15:05.787Z,18.22
2018-02-09T15:16:05.775Z,17.68
2018-02-09T15:17:05.773Z,16.88
2018-02-09T15:18:05.767Z,17.22
2018-02-09T15:19:05.744Z,17.16
2018-02-09T15:20:05.732Z,17.32
2018-02-09T15:21:05.723Z,17.36
2018-02-09T15:22:05.749Z,17.77
2018-02-09T15:23:05.723Z,18.54
2018-02-09T15:24:05.703Z,18.90
2018-02-09T15:25:05.688Z,19.23
2018-02-09T15:26:05.688Z,18.80
2018-02-09T15:27:05.679Z,17.75
2018-02-09T15:28:05.651Z,18.76
2018-02-09T15:29:05.657Z,18.64
2018-02-09T15:30:05.644Z,18.51
2018-02-09T15:31:05.626Z,18.57
2018-02-09T15:32:05.620Z,18.13
2018-02-09T15:33:05.606Z,18.50
2018-02-09T15:34:05.600Z,18.85
2018-02-09T15:35:05.592Z,18.83
2018-02-09T15:36:05.608Z,18.30
2018-02-09T15:37:05.574Z,18.25
2018-02-09T15:38:05.570Z,18.37
2018-02-09T15:39:05.582Z,18.98
2018-02-09T15:40:05.545Z,19.35
2018-02-09T15:41:05.543Z,21.81
2018-02-09T15:42:05.522Z,21.12
2018-02-09T15:43:05.517Z,19.45
2018-02-09T15:44:05.490Z,18.89
2018-02-09T15:45:05.519Z,18.59
2018-02-09T15:46:05.497Z,20.11
2018-02-09T15:47:05.500Z,20.42
2018-02-09T15:48:05.464Z,18.48
2018-02-09T15:49:05.472Z,21.45
2018-02-09T15:50:05.439Z,20.78
2018-02-09T15:51:05.436Z,19.23
2018-02-09T15:52:05.481Z,18.74
2018-02-09T15:53:05.395Z,18.81
2018-02-09T15:54:05.406Z,19.18
2018-02-09T15:55:05.385Z,18.91
2018-02-09T15:56:05.395Z,20.01
2018-02-09T15:57:05.360Z,19.13
2018-02-09T15:58:05.355Z,19.35
2018-02-09T15:59:05.337Z,19.42
2018-02-09T16:00:05.331Z,18.70
2018-02-09T16:01:05.325Z,18.86
2018-02-09T16:02:05.317Z,19.19
2018-02-09T16:03:05.331Z,18.64
2018-02-09T16:04:05.284Z,19.92
2018-02-09T16:05:05.281Z,18.79
2018-02-09T16:06:05.281Z,19.62
2018-02-09T16:07:05.261Z,20.56
2018-02-09T16:08:05.335Z,20.17
2018-02-09T16:09:05.239Z,19.55
2018-02-09T16:10:05.242Z,19.72
2018-02-09T16:11:05.217Z,19.49
2018-02-09T16:12:05.199Z,19.94
2018-02-09T16:13:05.198Z,19.37
2018-02-09T16:14:05.187Z,18.02
2018-02-09T16:15:05.202Z,18.74
2018-02-09T16:16:05.160Z,19.00
2018-02-09T16:17:05.184Z,18.34
2018-02-09T16:18:05.137Z,18.95
2018-02-09T16:19:05.197Z,18.75
2018-02-09T16:20:05.110Z,18.55
2018-02-09T16:21:05.101Z,18.82
2018-02-09T16:22:05.096Z,18.84
2018-02-09T16:23:05.094Z,19.23
2018-02-09T16:24:05.072Z,19.52
2018-02-09T16:25:05.075Z,18.60
2018-02-09T16:26:05.071Z,19.81
2018-02-09T16:27:06.941Z,19.19
2018-02-09T16:28:05.029Z,19.36
2018-02-09T16:29:05.008Z,19.35
2018-02-09T16:30:05.004Z,19.85
2018-02-09T16:31:05.000Z,19.42
2018-02-09T16:32:04.981Z,18.68
2018-02-09T16:33:04.972Z,18.76
2018-02-09T16:34:04.958Z,19.51
2018-02-09T16:35:04.969Z,19.56
2018-02-09T16:36:04.948Z,19.37
2018-02-09T16:37:04.920Z,19.61
2018-02-09T16:38:04.920Z,19.55
2018-02-09T16:39:04.904Z,20.11
2018-02-09T16:40:04.888Z,19.26
2018-02-09T16:41:04.880Z,19.19
2018-02-09T16:42:04.869Z,18.92
2018-02-09T16:43:04.852Z,19.79
2018-02-09T16:44:04.844Z,19.85
2018-02-09T16:45:04.844Z,20.36
2018-02-09T16:46:04.835Z,19.61
2018-02-09T16:47:04.803Z,19.19
2018-02-09T16:48:04.796Z,18.43
2018-02-09T16:49:04.801Z,18.66
2018-02-09T16:50:04.772Z,19.11
2018-02-09T16:51:04.764Z,19.72
2018-02-09T16:52:04.750Z,18.80
2018-02-09T16:53:04.860Z,19.71
2018-02-09T16:54:04.976Z,18.45
2018-02-09T16:55:04.726Z,18.62
2018-02-09T16:56:04.720Z,19.45
2018-02-09T16:57:04.752Z,19.39
2018-02-09T16:58:04.673Z,19.21
2018-02-09T16:59:04.666Z,19.68
2018-02-09T17:00:04.793Z,19.38
2018-02-09T17:01:04.770Z,20.33
2018-02-09T17:02:04.632Z,21.18
2018-02-09T17:03:04.884Z,20.42
2018-02-09T17:04:04.609Z,21.53
2018-02-09T17:05:04.600Z,21.76
2018-02-09T17:06:04.597Z,21.03
2018-02-09T17:07:04.688Z,20.38
2018-02-09T17:08:04.944Z,20.57
2018-02-09T17:09:04.552Z,20.82
2018-02-09T17:10:04.544Z,21.07
2018-02-09T17:11:04.568Z,19.92
2018-02-09T17:12:04.523Z,20.20
2018-02-09T17:13:04.493Z,19.05
2018-02-09T17:14:04.504Z,20.14
2018-02-09T17:15:04.468Z,19.10
2018-02-09T17:16:04.513Z,18.94
2018-02-09T17:17:04.453Z,19.25
2018-02-09T17:18:04.466Z,19.01
2018-02-09T17:19:04.702Z,18.68
2018-02-09T17:20:04.462Z,17.74
2018-02-09T17:21:04.401Z,18.86
2018-02-09T17:22:04.396Z,18.64
2018-02-09T17:23:04.679Z,17.80
2018-02-09T17:24:04.402Z,17.53
2018-02-09T17:25:04.371Z,17.92
2018-02-09T17:26:04.461Z,18.42
2018-02-09T17:27:04.381Z,17.26
2018-02-09T17:28:04.319Z,16.79
2018-02-09T17:29:04.348Z,17.04
2018-02-09T17:30:04.387Z,16.93
2018-02-09T17:31:04.292Z,16.97
2018-02-09T17:32:04.271Z,17.00
2018-02-09T17:33:04.265Z,15.94
2018-02-09T17:34:04.271Z,16.40